Portada
METAR-TAF:

METAR-TAF

Aeroports :

Bukharà, Uzbekistan

latitud: 39-46-30N, longitud: 064-29-00E, altitud: 229 m

Observació

L'informe es va fer fa 47 minuts, a les 19:30 UTC
Vent 6 kt del Sud/Sud-Oest
Temperatura 25°C
Humitat 41%
Pressió 1009 hPa
Visibilitat 10 km o més
sense núvols per sota de 1500 mi sense presència de cumulonimbus.

METAR: UTSB 251930Z 20006KT CAVOK 25/11 Q1009 R01/CLRD70 NOSIG

Hora: 01:17 (20:17 UTC)

Pronòstic

L'informe es va fer fa 3 hores i 17 minuts, a les 17:00 UTC
Pronòstic vàlid del 25 a les 18 UTC al 26 a les 18 UTC
Vent 3 kt amb direcció variable
Visibilitat: 7000 m
Temporalment
l' 25 a les 18 UTC al 26 a les 05 UTC
Vent 10 kt del Nord/Nord-Oest

TAF: UTSB 251700Z 2518/2618 VRB03KT 7000 NSC TX39/2611Z TEMPO 2518/2605 34010KT

Observacions i pronòstics meteorològics de més de 4000 aeroports (METAR i TAF).

Les estacions disponibles són els punts grocs i vermells al mapa.

Posi el ratolí al punt desitjat per veure el nom de l'estació.

Feu clic per veure les observacions i els pronòstics meteorològics.

Per canviar el mapa: feu clic els botons verds amb una creu de color negre per apropar; al botó verd amb un guió per allunyar la imatge; o en les fletxes verdes per a mapes adjacents.


METAR-TAF: